createdAt,value
2019-03-25T00:05:13.654Z,71.50
2019-03-25T00:07:45.986Z,71.70
2019-03-25T00:10:17.824Z,71.90
2019-03-25T00:12:49.871Z,72.10
2019-03-25T00:15:22.013Z,72.00
2019-03-25T00:17:53.790Z,72.20
2019-03-25T00:20:26.157Z,72.20
2019-03-25T00:22:58.252Z,72.20
2019-03-25T00:25:30.349Z,72.20
2019-03-25T00:28:02.867Z,72.30
2019-03-25T00:30:35.706Z,72.50
2019-03-25T00:33:15.683Z,72.30
2019-03-25T00:35:50.488Z,72.30
2019-03-25T00:38:30.289Z,72.30
2019-03-25T00:41:24.185Z,72.40
2019-03-25T00:44:23.675Z,72.10
2019-03-25T00:47:16.030Z,72.20
2019-03-25T00:49:47.944Z,72.30
2019-03-25T00:56:32.163Z,72.30
2019-03-25T00:59:04.120Z,72.40
2019-03-25T01:01:36.436Z,72.40
2019-03-25T02:42:20.327Z,74.00
2019-03-25T02:44:52.273Z,74.00
2019-03-25T02:47:25.217Z,74.40
2019-03-25T02:49:57.082Z,74.30
2019-03-25T02:52:29.118Z,74.50
2019-03-25T02:55:01.117Z,74.70
2019-03-25T02:57:33.557Z,74.80
2019-03-25T05:23:55.113Z,75.40
2019-03-25T05:26:37.473Z,75.30
2019-03-25T05:29:10.753Z,75.20
2019-03-25T06:06:53.914Z,70.00
2019-03-25T06:09:25.968Z,69.20
2019-03-25T06:11:59.346Z,69.00
2019-03-25T06:24:08.617Z,68.20
2019-03-25T06:26:42.285Z,67.90
2019-03-25T06:29:14.292Z,67.90
2019-03-25T06:31:46.127Z,68.00
2019-03-25T06:34:17.995Z,67.70
2019-03-25T06:40:10.468Z,67.40
2019-03-25T06:42:43.655Z,67.00
2019-03-25T06:45:15.952Z,67.10
2019-03-25T06:47:48.108Z,67.10
2019-03-25T06:59:45.561Z,66.80
2019-03-25T07:02:19.447Z,66.60
2019-03-25T07:04:51.531Z,66.60
2019-03-25T07:07:23.573Z,66.60
2019-03-25T07:09:55.717Z,66.60
2019-03-25T07:12:28.291Z,66.30
2019-03-25T07:15:13.543Z,66.20
2019-03-25T07:17:46.906Z,66.00
2019-03-25T07:20:27.637Z,65.80
2019-03-25T07:22:59.702Z,65.70
2019-03-25T07:58:19.754Z,68.40
2019-03-25T08:01:00.943Z,68.40
2019-03-25T08:03:33.010Z,68.40
2019-03-25T08:06:41.447Z,68.50
2019-03-25T08:12:28.822Z,69.00
2019-03-25T08:15:01.034Z,69.20
2019-03-25T08:17:34.505Z,69.50
2019-03-25T08:20:07.087Z,69.80
2019-03-25T08:22:39.354Z,70.10
2019-03-25T08:26:04.399Z,70.20
2019-03-25T08:28:37.643Z,70.30
2019-03-25T08:47:25.088Z,68.50
2019-03-25T08:53:08.424Z,67.20
2019-03-25T08:55:40.433Z,65.90
2019-03-25T08:58:12.805Z,63.80
2019-03-25T09:00:44.805Z,62.90
2019-03-25T09:03:16.768Z,61.90
2019-03-25T09:05:48.901Z,60.60
2019-03-25T09:08:20.762Z,59.50
2019-03-25T09:10:52.910Z,58.70
2019-03-25T09:13:24.882Z,58.60
2019-03-25T09:15:56.781Z,56.90
2019-03-25T09:18:28.745Z,55.80
2019-03-25T09:21:01.001Z,54.70
2019-03-25T09:23:33.066Z,54.80
2019-03-25T09:26:05.539Z,53.60
2019-03-25T09:28:38.457Z,51.30
2019-03-25T09:31:14.049Z,51.90
2019-03-25T09:33:46.522Z,51.30
2019-03-25T09:36:20.778Z,51.50
2019-03-25T09:38:52.925Z,51.30
2019-03-25T09:41:24.722Z,51.20
2019-03-25T09:43:56.771Z,50.90
2019-03-25T09:46:28.637Z,50.30
2019-03-25T09:49:00.497Z,49.70
2019-03-25T09:51:32.831Z,49.70
2019-03-25T09:54:06.144Z,49.70
2019-03-25T09:56:38.237Z,49.80
2019-03-25T09:59:10.081Z,49.70
2019-03-25T10:01:41.902Z,49.30
2019-03-25T10:04:14.046Z,48.10
2019-03-25T10:06:46.450Z,49.40
2019-03-25T10:09:18.294Z,48.80
2019-03-25T10:11:50.446Z,48.60
2019-03-25T10:14:22.585Z,48.40
2019-03-25T10:16:54.580Z,47.90
2019-03-25T10:19:26.934Z,46.90
2019-03-25T10:21:58.841Z,46.80
2019-03-25T10:24:30.860Z,47.20
2019-03-25T10:27:02.912Z,46.50
2019-03-25T10:29:35.678Z,45.90
2019-03-25T10:32:07.801Z,46.20
2019-03-25T10:34:39.987Z,46.20
2019-03-25T10:37:11.966Z,46.20
2019-03-25T10:39:44.982Z,47.40
2019-03-25T10:51:49.345Z,47.80
2019-03-25T10:54:28.175Z,47.70
2019-03-25T10:57:00.178Z,47.50
2019-03-25T10:59:33.047Z,47.50
2019-03-25T11:02:05.465Z,47.80
2019-03-25T11:04:37.528Z,47.90
2019-03-25T11:07:09.335Z,47.90
2019-03-25T11:09:41.113Z,48.20
2019-03-25T11:12:13.257Z,47.10
2019-03-25T11:14:45.157Z,46.70
2019-03-25T11:17:17.279Z,46.60
2019-03-25T11:19:51.413Z,46.90
2019-03-25T11:22:25.825Z,46.80
2019-03-25T11:24:59.481Z,45.80
2019-03-25T12:04:07.061Z,51.70
2019-03-25T12:06:38.945Z,52.60
2019-03-25T12:09:11.166Z,54.00
2019-03-25T12:11:43.324Z,56.20
2019-03-25T12:14:15.228Z,57.30
2019-03-25T12:16:46.960Z,58.10
2019-03-25T12:19:19.034Z,58.80
2019-03-25T12:34:06.719Z,62.80
2019-03-25T12:36:38.804Z,63.00
2019-03-25T12:39:10.731Z,64.20
2019-03-25T12:41:42.681Z,63.70
2019-03-25T12:44:14.656Z,66.20
2019-03-25T12:46:46.563Z,65.40
2019-03-25T12:49:18.463Z,66.80
2019-03-25T12:51:50.559Z,66.80
2019-03-25T13:00:43.597Z,66.00
2019-03-25T13:03:15.476Z,66.60
2019-03-25T13:05:47.658Z,67.00
2019-03-25T13:08:33.156Z,68.00
2019-03-25T13:10:58.894Z,68.20
2019-03-25T13:13:33.569Z,69.50
2019-03-25T13:16:05.431Z,69.90
2019-03-25T13:18:37.253Z,69.80
2019-03-25T13:21:09.130Z,70.40
2019-03-25T13:23:42.746Z,71.30
2019-03-25T13:26:14.711Z,71.30
2019-03-25T13:28:47.104Z,71.00
2019-03-25T13:33:52.454Z,70.20
2019-03-25T13:36:24.523Z,70.60
2019-03-25T13:38:58.023Z,71.80
2019-03-25T13:41:30.476Z,71.90
2019-03-25T13:46:35.180Z,72.40
2019-03-25T13:54:09.089Z,74.20
2019-03-25T13:56:41.039Z,73.70
2019-03-25T13:59:12.853Z,73.60
2019-03-25T14:01:44.998Z,73.90
2019-03-25T14:04:16.900Z,74.50
2019-03-25T14:09:19.472Z,72.20
2019-03-25T14:11:52.443Z,73.50
2019-03-25T14:14:24.530Z,73.10
2019-03-25T14:16:56.491Z,73.30
2019-03-25T14:19:29.452Z,73.60
2019-03-25T14:22:02.000Z,73.60
2019-03-25T14:24:34.781Z,73.90
2019-03-25T14:27:06.809Z,73.90
2019-03-25T14:32:10.430Z,73.80
2019-03-25T14:37:15.691Z,75.80
2019-03-25T14:39:49.505Z,74.40
2019-03-25T14:42:21.473Z,74.40
2019-03-25T14:44:54.801Z,74.50
2019-03-25T14:47:28.595Z,74.60
2019-03-25T14:50:00.675Z,74.70
2019-03-25T14:55:04.470Z,76.00
2019-03-25T14:57:40.612Z,75.10
2019-03-25T15:00:24.491Z,76.00
2019-03-25T15:05:19.385Z,74.60
2019-03-25T15:07:51.553Z,75.00
2019-03-25T15:10:23.721Z,74.90
2019-03-25T15:12:56.681Z,75.60
2019-03-25T15:15:30.481Z,76.20
2019-03-25T15:18:02.656Z,71.80
2019-03-25T15:20:34.849Z,75.30
2019-03-25T15:23:06.991Z,74.90
2019-03-25T15:25:38.914Z,75.80
2019-03-25T15:28:12.837Z,75.90
2019-03-25T15:30:44.832Z,75.30
2019-03-25T15:33:22.208Z,75.70
2019-03-25T15:38:34.110Z,75.50
2019-03-25T15:41:06.935Z,76.40
2019-03-25T15:43:42.347Z,77.20
2019-03-25T15:46:16.920Z,77.00
2019-03-25T15:48:53.437Z,77.60
2019-03-25T15:51:29.364Z,76.40
2019-03-25T15:54:08.741Z,76.10
2019-03-25T15:56:44.176Z,77.70
2019-03-25T15:59:16.622Z,77.30
2019-03-25T16:01:48.941Z,76.60
2019-03-25T16:04:21.226Z,76.80
2019-03-25T16:06:53.769Z,77.10
2019-03-25T16:09:25.730Z,77.20
2019-03-25T16:11:57.727Z,77.20
2019-03-25T16:14:29.805Z,76.80
2019-03-25T16:17:02.212Z,76.90
2019-03-25T16:19:34.397Z,78.00
2019-03-25T16:22:06.989Z,76.90
2019-03-25T16:24:38.789Z,76.60
2019-03-25T16:27:10.813Z,78.50
2019-03-25T16:29:43.798Z,78.30
2019-03-25T16:32:15.690Z,77.50
2019-03-25T16:34:47.771Z,77.60
2019-03-25T16:37:21.230Z,77.70
2019-03-25T16:39:54.942Z,77.80
2019-03-25T16:42:27.352Z,77.90
2019-03-25T16:44:59.594Z,78.00
2019-03-25T16:47:32.349Z,78.00
2019-03-25T16:50:04.845Z,78.20
2019-03-25T16:52:38.507Z,78.20
2019-03-25T16:55:11.915Z,78.20
2019-03-25T16:57:43.868Z,78.10
2019-03-25T17:00:26.637Z,78.10
2019-03-25T17:02:49.811Z,78.10
2019-03-25T17:05:21.909Z,78.20
2019-03-25T17:07:53.920Z,78.00
2019-03-25T17:10:26.883Z,78.00
2019-03-25T17:12:58.926Z,78.00
2019-03-25T17:15:30.966Z,78.10
2019-03-25T17:18:02.923Z,78.20
2019-03-25T17:20:38.122Z,78.30
2019-03-25T17:23:09.958Z,78.40
2019-03-25T17:28:56.235Z,95.70
2019-03-25T17:31:28.481Z,90.70
2019-03-25T17:34:00.908Z,79.70
2019-03-25T17:36:33.816Z,80.80
2019-03-25T17:39:09.814Z,82.00
2019-03-25T17:41:41.799Z,83.00
2019-03-25T17:44:13.831Z,84.00
2019-03-25T17:46:46.114Z,84.70
2019-03-25T17:49:17.997Z,85.40
2019-03-25T17:51:51.645Z,85.90
2019-03-25T17:54:23.894Z,86.30
2019-03-25T17:56:56.928Z,86.60
2019-03-25T17:59:29.071Z,86.80
2019-03-25T18:02:01.165Z,87.10
2019-03-25T18:04:34.399Z,87.30
2019-03-25T18:07:06.764Z,87.30
2019-03-25T18:09:40.724Z,87.50
2019-03-25T18:12:12.598Z,87.50
2019-03-25T18:14:44.482Z,87.70
2019-03-25T18:17:18.231Z,87.70
2019-03-25T18:19:50.676Z,87.40
2019-03-25T18:22:22.798Z,86.90
2019-03-25T18:24:58.767Z,86.70
2019-03-25T18:27:30.800Z,85.00
2019-03-25T18:30:08.681Z,86.50
2019-03-25T18:32:44.178Z,86.60
2019-03-25T18:35:23.724Z,86.90
2019-03-25T18:37:56.642Z,87.10
2019-03-25T18:40:28.784Z,87.40
2019-03-25T18:43:04.663Z,87.50
2019-03-25T18:45:37.988Z,87.60
2019-03-25T18:48:10.922Z,87.60
2019-03-25T18:50:44.099Z,87.70
2019-03-25T18:53:16.197Z,87.90
2019-03-25T18:55:48.506Z,87.90
2019-03-25T18:58:20.608Z,88.10
2019-03-25T19:00:56.445Z,88.10
2019-03-25T19:03:28.319Z,88.10
2019-03-25T19:06:00.961Z,88.10
2019-03-25T19:08:33.167Z,88.10
2019-03-25T19:11:13.236Z,88.10
2019-03-25T19:13:48.127Z,88.20
2019-03-25T19:16:22.957Z,88.10
2019-03-25T19:18:55.569Z,88.00
2019-03-25T19:21:28.033Z,87.10
2019-03-25T19:24:01.125Z,87.70
2019-03-25T19:26:35.896Z,87.60
2019-03-25T19:29:08.088Z,87.40
2019-03-25T19:31:40.731Z,87.40
2019-03-25T19:34:13.249Z,87.30
2019-03-25T19:36:45.212Z,87.30
2019-03-25T19:39:18.036Z,87.50
2019-03-25T19:41:51.220Z,87.60
2019-03-25T19:44:23.428Z,87.70
2019-03-25T19:46:55.570Z,87.60
2019-03-25T19:49:27.376Z,87.50
2019-03-25T19:52:00.353Z,87.40
2019-03-25T19:54:32.598Z,87.10
2019-03-25T19:57:04.630Z,86.60
2019-03-25T19:59:37.503Z,86.20
2019-03-25T20:02:18.487Z,85.70
2019-03-25T20:04:43.862Z,85.50
2019-03-25T20:09:46.476Z,95.30
2019-03-25T20:12:18.553Z,83.20
2019-03-25T20:14:50.682Z,84.00
2019-03-25T20:17:22.971Z,84.30
2019-03-25T20:19:54.812Z,84.30
2019-03-25T20:22:26.674Z,84.40
2019-03-25T20:27:29.508Z,83.80
2019-03-25T20:30:01.612Z,84.40
2019-03-25T20:32:34.159Z,84.70
2019-03-25T20:35:06.411Z,84.90
2019-03-25T20:37:39.499Z,85.00
2019-03-25T20:40:11.799Z,85.10
2019-03-25T20:42:43.798Z,85.10
2019-03-25T20:45:18.206Z,85.20
2019-03-25T20:47:49.303Z,85.20
2019-03-25T21:00:51.033Z,83.30
2019-03-25T21:05:56.081Z,83.20
2019-03-25T21:08:29.308Z,84.00
2019-03-25T21:11:02.768Z,84.40
2019-03-25T21:13:34.829Z,84.80
2019-03-25T21:16:06.693Z,85.00
2019-03-25T21:18:46.824Z,90.20
2019-03-25T21:21:31.382Z,83.70
2019-03-25T21:24:08.219Z,84.40
2019-03-25T21:26:40.311Z,84.60
2019-03-25T21:29:12.235Z,84.90
2019-03-25T21:31:45.428Z,84.90
2019-03-25T21:41:51.667Z,99.90
2019-03-25T21:46:54.578Z,83.00
2019-03-25T21:49:27.652Z,95.80
2019-03-25T21:52:02.504Z,83.30
2019-03-25T21:59:37.156Z,94.00
2019-03-25T22:02:09.361Z,83.90
2019-03-25T22:04:41.817Z,84.20
2019-03-25T22:07:13.716Z,84.40
2019-03-25T22:09:45.789Z,84.40
2019-03-25T22:12:17.585Z,84.60
2019-03-25T22:14:49.842Z,84.10
2019-03-25T22:17:22.151Z,84.40
2019-03-25T22:19:54.007Z,84.40
2019-03-25T22:22:26.033Z,84.40
2019-03-25T22:24:58.083Z,91.70
2019-03-25T22:27:29.985Z,95.70
2019-03-25T22:30:01.893Z,99.90
2019-03-25T22:32:34.107Z,82.80
2019-03-25T22:35:06.571Z,83.50
2019-03-25T22:47:43.869Z,99.90
2019-03-25T22:50:29.122Z,94.50
2019-03-25T22:53:01.089Z,83.40
2019-03-25T22:55:33.052Z,83.90
2019-03-25T22:58:05.079Z,84.20
2019-03-25T23:00:44.383Z,86.20
2019-03-25T23:03:16.874Z,84.60
2019-03-25T23:05:48.738Z,84.50
2019-03-25T23:08:21.788Z,84.60
2019-03-25T23:10:54.020Z,84.60
2019-03-25T23:13:26.287Z,84.50
2019-03-25T23:15:58.454Z,84.70
2019-03-25T23:18:32.622Z,84.50
2019-03-25T23:21:04.894Z,84.50
2019-03-25T23:23:37.052Z,84.20
2019-03-25T23:26:09.002Z,84.70
2019-03-25T23:28:40.876Z,84.70
2019-03-25T23:31:12.719Z,84.70
2019-03-25T23:33:52.144Z,90.80
2019-03-25T23:36:18.371Z,95.60
2019-03-25T23:38:51.594Z,84.20
2019-03-25T23:41:26.375Z,84.20
2019-03-25T23:46:36.901Z,99.90
2019-03-25T23:49:09.016Z,83.30
2019-03-25T23:51:41.122Z,84.00
2019-03-25T23:56:47.087Z,94.80
